createdAt,value
2017-10-17T06:40:48.201Z,99.99
2017-10-17T06:41:28.689Z,99.99
2017-10-17T06:42:09.174Z,99.99
2017-10-17T06:42:49.657Z,99.99
2017-10-17T06:43:30.177Z,99.99
2017-10-17T06:44:10.706Z,99.99
2017-10-17T06:44:51.201Z,99.99
2017-10-17T06:45:31.698Z,99.99
2017-10-17T06:46:12.206Z,99.99
2017-10-17T06:46:52.733Z,99.99
2017-10-17T06:47:33.239Z,99.99
2017-10-17T06:49:46.034Z,99.99
2017-10-17T06:50:26.462Z,99.99
2017-10-17T06:51:06.987Z,99.99
2017-10-17T06:51:47.432Z,99.99
2017-10-17T06:52:28.002Z,99.99
2017-10-17T06:53:08.579Z,99.99
2017-10-17T06:53:49.109Z,99.99
2017-10-17T06:54:29.601Z,99.99
2017-10-17T06:56:42.365Z,99.99
2017-10-17T06:57:22.833Z,99.99
2017-10-17T06:58:03.314Z,99.99
2017-10-17T06:58:43.812Z,99.99
2017-10-17T06:59:24.338Z,99.99
2017-10-17T07:00:04.882Z,99.99
2017-10-17T07:00:45.345Z,99.99
2017-10-17T07:01:25.846Z,99.99
2017-10-17T07:02:06.322Z,99.99
2017-10-17T07:02:46.817Z,99.99
2017-10-17T07:03:27.308Z,99.99
2017-10-17T07:04:07.799Z,99.99
2017-10-17T07:04:48.892Z,99.99
2017-10-17T07:05:29.375Z,99.99
2017-10-17T07:06:09.870Z,99.99
2017-10-17T07:06:50.385Z,99.99
2017-10-17T07:07:30.837Z,99.99
2017-10-17T07:08:11.316Z,99.76
2017-10-17T07:08:51.845Z,99.61
2017-10-17T07:09:32.316Z,99.99
2017-10-17T07:10:12.804Z,99.99
2017-10-17T07:10:53.283Z,99.71
2017-10-17T07:11:33.759Z,99.99
2017-10-17T07:12:14.278Z,99.71
2017-10-17T07:12:54.758Z,99.9
2017-10-17T07:13:35.247Z,99.04
2017-10-17T07:14:15.730Z,99.04
2017-10-17T07:14:56.209Z,99.33
2017-10-17T07:15:36.691Z,99.52
2017-10-17T07:16:17.182Z,98.85
2017-10-17T07:16:57.665Z,98.85
2017-10-17T07:17:38.121Z,99.43
2017-10-17T07:18:18.619Z,99.28
2017-10-17T07:18:59.121Z,98.42
2017-10-17T07:19:39.597Z,96.89
2017-10-17T07:20:20.107Z,97.47
2017-10-17T07:21:00.588Z,98.13
2017-10-17T07:21:41.091Z,98.52
2017-10-17T07:22:21.580Z,97.37
2017-10-17T07:23:02.137Z,97.56
2017-10-17T07:23:42.680Z,98.13
2017-10-17T07:24:23.265Z,98.71
2017-10-17T07:25:03.792Z,96.99
2017-10-17T07:25:44.349Z,97.94
2017-10-17T07:26:25.551Z,96.75
2017-10-17T07:27:06.111Z,97.23
2017-10-17T07:27:46.641Z,97.04
2017-10-17T07:28:27.273Z,96.75
2017-10-17T07:29:07.765Z,96.75
2017-10-17T07:29:48.316Z,96.56
2017-10-17T07:30:28.876Z,96.08
2017-10-17T07:31:09.390Z,95.89
2017-10-17T07:31:49.952Z,96.56
2017-10-17T07:32:30.528Z,96.08
2017-10-17T07:33:11.156Z,96.27
2017-10-17T07:33:51.723Z,96.37
2017-10-17T07:34:32.267Z,96.08
2017-10-17T07:35:12.830Z,96.47
2017-10-17T07:35:53.384Z,95.94
2017-10-17T07:36:33.929Z,95.84
2017-10-17T07:37:14.490Z,95.07
2017-10-17T07:37:55.037Z,94.98
2017-10-17T07:38:35.605Z,94.7
2017-10-17T07:39:16.114Z,95.27
2017-10-17T07:39:57.465Z,94.89
2017-10-17T07:40:38.009Z,95.07
2017-10-17T07:41:18.564Z,94.89
2017-10-17T07:41:59.159Z,95.07
2017-10-17T07:42:39.759Z,95.65
2017-10-17T07:43:20.338Z,95.17
2017-10-17T07:44:01.021Z,94.79
2017-10-17T07:44:41.603Z,94.6
2017-10-17T07:45:22.202Z,94.21
2017-10-17T07:46:02.787Z,93.93
2017-10-17T07:46:43.327Z,93.07
2017-10-17T07:47:23.911Z,94.21
2017-10-17T07:48:04.443Z,93.93
2017-10-17T07:48:44.989Z,93.79
2017-10-17T07:49:25.557Z,93.59
2017-10-17T07:50:06.104Z,92.69
2017-10-17T07:50:46.654Z,93.5
2017-10-17T07:51:27.282Z,94.26
2017-10-17T07:52:07.837Z,93.79
2017-10-17T07:52:48.409Z,92.73
2017-10-17T07:53:29.656Z,92.35
2017-10-17T07:54:10.194Z,92.63
2017-10-17T07:54:50.746Z,93.02
2017-10-17T07:55:31.362Z,93.5
2017-10-17T07:56:11.952Z,93.16
2017-10-17T07:56:53.353Z,92.58
2017-10-17T07:57:33.941Z,91.82
2017-10-17T07:58:14.522Z,92.21
2017-10-17T07:58:55.104Z,93.54
2017-10-17T07:59:35.683Z,92.78
2017-10-17T08:00:16.303Z,90.96
2017-10-17T08:00:56.837Z,90.48
2017-10-17T08:01:38.040Z,90.29
2017-10-17T08:02:18.590Z,91.19
2017-10-17T08:02:59.166Z,91.53
2017-10-17T08:03:39.718Z,90.91
2017-10-17T08:04:20.284Z,90.23
2017-10-17T08:05:00.845Z,90.23
2017-10-17T08:05:41.394Z,88.42
2017-10-17T08:06:21.968Z,89.28
2017-10-17T08:07:03.286Z,88.8
2017-10-17T08:07:43.877Z,89.09
2017-10-17T08:08:24.459Z,89.28
2017-10-17T08:09:05.031Z,88.8
2017-10-17T08:09:45.583Z,88.03
2017-10-17T08:10:26.145Z,88.99
2017-10-17T08:11:06.694Z,88.84
2017-10-17T08:11:47.240Z,88.65
2017-10-17T08:12:27.792Z,89.32
2017-10-17T08:13:08.329Z,88.84
2017-10-17T08:13:48.894Z,89.42
2017-10-17T08:14:29.473Z,87.79
2017-10-17T08:15:10.066Z,88.17
2017-10-17T08:15:50.664Z,88.27
2017-10-17T08:16:31.216Z,88.65
2017-10-17T08:17:11.774Z,87.35
2017-10-17T08:17:52.373Z,87.79
2017-10-17T08:18:34.558Z,87.64
2017-10-17T08:19:15.187Z,87.74
2017-10-17T08:19:55.741Z,87.74
2017-10-17T08:20:36.303Z,87.45
2017-10-17T08:21:16.905Z,87.16
2017-10-17T08:21:57.497Z,87.07
2017-10-17T08:22:38.035Z,87.55
2017-10-17T08:23:18.582Z,86.68
2017-10-17T08:23:59.161Z,84.81
2017-10-17T08:24:39.732Z,85.77
2017-10-17T08:25:20.324Z,84.04
2017-10-17T08:26:00.835Z,84.37
2017-10-17T08:26:41.375Z,83.22
2017-10-17T08:27:22.011Z,83.22
2017-10-17T08:28:02.577Z,82.1
2017-10-17T08:28:43.116Z,81.82
2017-10-17T08:29:23.689Z,81.43
2017-10-17T08:30:04.258Z,81.57
2017-10-17T08:30:44.815Z,82.15
2017-10-17T08:31:25.345Z,80.61
2017-10-17T08:32:05.879Z,79.88
2017-10-17T08:32:47.048Z,79.4
2017-10-17T08:33:28.398Z,78.92
2017-10-17T08:34:09.800Z,78.63
2017-10-17T08:34:50.334Z,78.15
2017-10-17T08:35:30.874Z,78.92
2017-10-17T08:36:11.436Z,78.92
2017-10-17T08:36:52.024Z,77.48
2017-10-17T08:37:32.585Z,78.63
2017-10-17T08:38:13.174Z,78.63
2017-10-17T08:38:53.760Z,77.96
2017-10-17T08:39:34.327Z,76.84
2017-10-17T08:40:14.903Z,76.46
2017-10-17T08:40:55.451Z,75.82
2017-10-17T08:41:36.028Z,74.96
2017-10-17T08:42:16.578Z,74.67
2017-10-17T08:42:57.111Z,74.03
2017-10-17T08:43:37.660Z,73.84
2017-10-17T08:44:18.248Z,73.01
2017-10-17T08:44:58.779Z,71.53
2017-10-17T08:45:39.342Z,69.64
2017-10-17T08:46:19.916Z,71.28
2017-10-17T08:47:00.494Z,69.06
2017-10-17T08:47:41.050Z,69.7
2017-10-17T08:48:21.600Z,70.18
2017-10-17T08:49:02.154Z,69.25
2017-10-17T08:49:42.768Z,70.76
2017-10-17T08:50:23.284Z,69.64
2017-10-17T08:51:03.878Z,69.79
2017-10-17T08:51:44.431Z,69.51
2017-10-17T08:52:25.056Z,69.35
2017-10-17T08:53:05.608Z,68.68
2017-10-17T08:53:46.224Z,68.96
2017-10-17T08:54:26.755Z,69.09
2017-10-17T08:55:07.548Z,68.23
2017-10-17T08:55:48.318Z,68.8
2017-10-17T08:56:28.881Z,68.9
2017-10-17T08:57:09.410Z,67.84
2017-10-17T08:57:50.014Z,69.19
2017-10-17T08:58:30.536Z,69.09
2017-10-17T08:59:11.099Z,67.46
2017-10-17T08:59:51.681Z,67.26
2017-10-17T09:00:32.194Z,67.74
2017-10-17T09:01:13.376Z,67.36
2017-10-17T09:01:53.943Z,66.2
2017-10-17T09:02:34.478Z,66.43
2017-10-17T09:03:15.067Z,66.14
2017-10-17T09:03:55.641Z,65.33
2017-10-17T09:04:36.200Z,65.81
2017-10-17T09:05:16.815Z,66.88
2017-10-17T09:05:57.422Z,67.52
2017-10-17T09:06:37.983Z,67.77
2017-10-17T09:07:18.572Z,68.54
2017-10-17T09:07:59.167Z,69.6
2017-10-17T09:08:39.711Z,69.51
2017-10-17T09:09:20.321Z,69.95
2017-10-17T09:10:00.934Z,70.18
2017-10-17T09:10:41.552Z,69.95
2017-10-17T09:11:22.143Z,70.53
2017-10-17T09:12:02.682Z,70.53
2017-10-17T09:12:43.235Z,70.82
2017-10-17T09:13:23.871Z,70.72
2017-10-17T09:14:04.424Z,71.11
2017-10-17T09:14:44.975Z,71.46
2017-10-17T09:15:25.624Z,71.59
2017-10-17T09:16:06.160Z,72.07
2017-10-17T09:16:46.760Z,71.08
2017-10-17T09:17:27.297Z,71.26
2017-10-17T09:18:07.832Z,71.65
2017-10-17T09:18:48.357Z,71.2
2017-10-17T09:19:28.940Z,71.4
2017-10-17T09:20:09.507Z,70.82
2017-10-17T09:20:50.064Z,71.11
2017-10-17T09:21:30.657Z,70.62
2017-10-17T09:22:11.215Z,70.05
2017-10-17T09:22:51.736Z,70.24
2017-10-17T09:23:32.309Z,70.76
2017-10-17T09:24:12.879Z,69.79
2017-10-17T09:24:53.429Z,70.09
2017-10-17T09:25:33.993Z,69.51
2017-10-17T09:26:14.543Z,69.79
2017-10-17T09:26:56.026Z,70.86
2017-10-17T09:27:36.613Z,69.95
2017-10-17T09:28:17.143Z,69.85
2017-10-17T09:28:58.423Z,70.18
2017-10-17T09:29:38.968Z,69.95
2017-10-17T09:30:19.529Z,69.7
2017-10-17T09:31:00.090Z,70.18
2017-10-17T09:31:40.692Z,70.37
2017-10-17T09:32:21.870Z,69.7
2017-10-17T09:33:02.443Z,69.51
2017-10-17T09:33:42.972Z,69.15
2017-10-17T09:34:23.565Z,68.48
2017-10-17T09:35:04.883Z,67.9
2017-10-17T09:35:45.423Z,68.48
2017-10-17T09:36:25.995Z,68
2017-10-17T09:37:06.571Z,67.52
2017-10-17T09:37:47.141Z,67.61
2017-10-17T09:38:27.687Z,67.55
2017-10-17T09:39:08.305Z,68.1
2017-10-17T09:39:48.852Z,68.13
2017-10-17T09:40:29.392Z,68.04
2017-10-17T09:41:09.988Z,68.1
2017-10-17T09:41:50.568Z,68.48
2017-10-17T09:42:31.175Z,68.04
2017-10-17T09:43:11.755Z,68.23
2017-10-17T09:43:52.285Z,68.42
2017-10-17T09:44:33.448Z,68.23
2017-10-17T09:45:13.967Z,67.16
2017-10-17T09:45:54.495Z,67.74
2017-10-17T09:46:35.052Z,67.46
2017-10-17T09:47:15.635Z,67.07
2017-10-17T09:47:56.177Z,66.88
2017-10-17T09:48:36.818Z,66.78
2017-10-17T09:49:17.370Z,66.39
2017-10-17T09:49:58.008Z,67.16
2017-10-17T09:50:38.686Z,66.91
2017-10-17T09:51:19.256Z,65.85
2017-10-17T09:51:59.831Z,66.62
2017-10-17T09:52:41.317Z,66.62
2017-10-17T09:53:21.916Z,66.91
2017-10-17T09:54:02.479Z,66.82
2017-10-17T09:54:43.086Z,65.37
2017-10-17T09:55:23.662Z,65.27
2017-10-17T09:56:04.257Z,65.17
2017-10-17T09:56:44.811Z,66.14
2017-10-17T09:57:25.406Z,65.47
2017-10-17T09:58:05.944Z,66.14
2017-10-17T09:58:46.529Z,65.37
2017-10-17T09:59:27.115Z,65.08
2017-10-17T10:00:07.664Z,64.79
2017-10-17T10:00:48.321Z,65.27
2017-10-17T10:01:28.958Z,64.89
2017-10-17T10:02:09.563Z,65.11
2017-10-17T10:02:50.147Z,65.3
2017-10-17T10:03:30.774Z,65.01
2017-10-17T10:04:11.404Z,65.2
2017-10-17T10:04:52.036Z,64.34
2017-10-17T10:05:32.676Z,65.66
2017-10-17T10:06:13.248Z,65.47
2017-10-17T10:06:53.846Z,66.52
2017-10-17T10:07:34.420Z,66.36
2017-10-17T10:08:15.659Z,66.08
2017-10-17T10:08:56.255Z,64.53
2017-10-17T10:09:36.830Z,65.01
2017-10-17T10:10:17.944Z,63.95
2017-10-17T10:10:58.564Z,64.63
2017-10-17T10:11:39.127Z,63.21
2017-10-17T10:12:19.726Z,63.21
2017-10-17T10:13:03.160Z,63.6
2017-10-17T10:13:44.780Z,63.89
2017-10-17T10:14:25.404Z,64.59
2017-10-17T10:15:05.986Z,63.53
2017-10-17T10:15:47.086Z,63.18
2017-10-17T10:16:28.351Z,61.44
2017-10-17T10:17:08.997Z,61.83
2017-10-17T10:17:49.567Z,61.15
2017-10-17T10:18:30.207Z,60.11
2017-10-17T10:19:10.766Z,60.47
2017-10-17T10:19:51.326Z,61.15
2017-10-17T10:20:31.907Z,60.99
2017-10-17T10:21:12.433Z,59.56
2017-10-17T10:21:52.972Z,58.7
2017-10-17T10:22:34.446Z,58.6
2017-10-17T10:23:14.978Z,58.53
2017-10-17T10:23:55.511Z,58.27
2017-10-17T10:24:36.061Z,56.94
2017-10-17T10:25:16.651Z,56.36
2017-10-17T10:25:57.189Z,55.13
2017-10-17T10:26:37.735Z,55.35
2017-10-17T10:27:18.294Z,53.99
2017-10-17T10:27:58.881Z,54.9
2017-10-17T10:28:39.454Z,53.47
2017-10-17T10:29:20.047Z,52.42
2017-10-17T10:30:00.633Z,51.21
2017-10-17T10:30:41.221Z,50.24
2017-10-17T10:31:21.802Z,49.22
2017-10-17T10:32:02.362Z,47.9
2017-10-17T10:32:42.974Z,47.03
2017-10-17T10:33:23.526Z,46.2
2017-10-17T10:34:04.108Z,45.56
2017-10-17T10:34:44.649Z,43.76
2017-10-17T10:35:25.161Z,44.73
2017-10-17T10:36:05.698Z,43.32
2017-10-17T10:36:46.238Z,41.82
2017-10-17T10:37:26.767Z,40.41
2017-10-17T10:38:07.282Z,39.25
2017-10-17T10:38:47.803Z,37.94
2017-10-17T10:39:28.325Z,36.57
2017-10-17T10:40:08.926Z,35.52
2017-10-17T10:40:49.470Z,35.26
2017-10-17T10:41:30.006Z,33.61
2017-10-17T10:42:10.538Z,34.05
2017-10-17T10:42:51.105Z,34.8
2017-10-17T10:43:31.666Z,35.78
2017-10-17T10:44:12.147Z,35.6
2017-10-17T10:44:52.663Z,34.44
2017-10-17T10:45:33.138Z,34.15
2017-10-17T10:46:13.662Z,34.15
2017-10-17T10:46:54.138Z,34.26
2017-10-17T10:47:34.565Z,33.61
2017-10-17T10:48:15.049Z,33.12
2017-10-17T10:48:55.560Z,32.41
2017-10-17T10:49:36.044Z,32.01
2017-10-17T10:50:16.522Z,32.71
2017-10-17T10:52:29.283Z,30.88
2017-10-17T10:53:09.719Z,31.25
2017-10-17T10:53:50.250Z,31.46
2017-10-17T10:54:30.738Z,31.76
2017-10-17T10:55:11.236Z,31.01
2017-10-17T10:55:51.741Z,30.69
2017-10-17T10:56:32.447Z,30.54
2017-10-17T10:57:12.959Z,29.3
2017-10-17T10:57:53.445Z,47
2017-10-17T10:58:33.965Z,46.97
2017-10-17T10:59:14.445Z,46.57
2017-10-17T10:59:54.915Z,46.92
2017-10-17T11:02:12.728Z,47.06
2017-10-17T11:02:53.239Z,46.95
2017-10-17T11:03:33.732Z,47.37
2017-10-17T11:04:14.232Z,47.48
2017-10-17T11:04:54.715Z,47.29
2017-10-17T11:05:35.216Z,47.35
2017-10-17T11:06:15.764Z,47.47
2017-10-17T11:06:56.780Z,46.82
2017-10-17T11:07:37.274Z,47.05
2017-10-17T11:08:17.771Z,47.28
2017-10-17T11:08:58.270Z,47.5
2017-10-17T11:09:38.755Z,47.34
2017-10-17T11:10:19.291Z,47.5
2017-10-17T11:10:59.790Z,47.88
2017-10-17T11:11:40.302Z,48.03
2017-10-17T11:12:20.869Z,48.28
2017-10-17T11:13:01.427Z,48.73
2017-10-17T11:13:41.926Z,48.8
2017-10-17T11:14:22.442Z,0
2017-10-17T11:15:02.943Z,0
2017-10-17T11:15:43.429Z,0
2017-10-17T11:16:23.911Z,0
2017-10-17T11:17:04.429Z,0
2017-10-17T11:17:44.899Z,0
2017-10-17T11:18:25.389Z,0
2017-10-17T11:19:05.875Z,0
2017-10-17T11:19:46.386Z,0
2017-10-17T11:20:26.945Z,0
2017-10-17T11:21:07.441Z,0
2017-10-17T11:22:54.931Z,0
2017-10-17T11:23:35.501Z,0
2017-10-17T11:24:15.963Z,0
2017-10-17T11:24:56.478Z,0
2017-10-17T11:25:36.964Z,0
2017-10-17T11:26:17.477Z,0
2017-10-17T11:26:58.035Z,0
2017-10-17T11:27:38.495Z,0
2017-10-17T11:28:18.979Z,0
2017-10-17T11:29:00.005Z,0
2017-10-17T11:29:40.508Z,0
2017-10-17T11:30:21.003Z,0.01
2017-10-17T11:31:01.534Z,0
2017-10-17T11:31:42.021Z,0
2017-10-17T11:32:22.541Z,0
2017-10-17T11:33:03.046Z,0.19
2017-10-17T11:33:43.536Z,0.05
2017-10-17T11:34:24.012Z,0
2017-10-17T11:35:04.522Z,3.43
2017-10-17T11:35:45.008Z,3.43
2017-10-17T11:36:25.525Z,0.01
2017-10-17T11:37:06.033Z,0
2017-10-17T11:37:46.563Z,0
2017-10-17T11:38:27.082Z,0
2017-10-17T11:39:07.609Z,0
2017-10-17T11:39:48.102Z,1.56
2017-10-17T11:40:28.586Z,3.43
2017-10-17T11:41:09.066Z,46.21
2017-10-17T11:41:49.566Z,50
2017-10-17T11:42:30.069Z,0
2017-10-17T11:43:10.616Z,3.43
2017-10-17T11:43:51.149Z,0
2017-10-17T11:44:31.687Z,0.39
2017-10-17T11:45:12.152Z,3.43
2017-10-17T11:45:52.733Z,3.43
2017-10-17T11:46:33.249Z,3.43
2017-10-17T11:47:13.736Z,0
2017-10-17T11:47:54.241Z,0
2017-10-17T11:48:34.730Z,0
2017-10-17T11:49:15.247Z,6.25
2017-10-17T11:49:55.797Z,3.43
2017-10-17T11:50:36.303Z,0
2017-10-17T11:51:16.813Z,3.43
2017-10-17T11:51:57.313Z,0.1
2017-10-17T11:52:37.826Z,3.43
2017-10-17T11:53:18.319Z,22.5
2017-10-17T11:53:58.916Z,48.49
2017-10-17T11:54:39.509Z,0
2017-10-17T11:55:20.076Z,48.12
2017-10-17T11:56:00.702Z,0.01
2017-10-17T11:56:41.285Z,0
2017-10-17T11:57:21.874Z,0
2017-10-17T11:58:02.461Z,0
2017-10-17T11:58:43.059Z,0
2017-10-17T11:59:23.631Z,100
2017-10-17T12:00:04.221Z,0
2017-10-17T12:00:44.847Z,0
2017-10-17T12:01:25.402Z,0
2017-10-17T12:02:05.994Z,0
2017-10-17T12:02:46.625Z,3.43
2017-10-17T12:03:27.935Z,0
2017-10-17T12:04:08.513Z,0
2017-10-17T12:04:49.096Z,0
2017-10-17T12:05:30.666Z,0
2017-10-17T12:06:11.257Z,0
2017-10-17T12:06:51.783Z,0
2017-10-17T12:07:32.364Z,0
2017-10-17T12:08:12.945Z,3.43
2017-10-17T12:08:53.464Z,0
2017-10-17T12:09:34.037Z,3.43
2017-10-17T12:10:15.295Z,0
2017-10-17T12:10:55.860Z,3.43
2017-10-17T12:11:36.359Z,0
2017-10-17T12:12:16.896Z,0
2017-10-17T12:12:57.399Z,0.19
2017-10-17T12:13:37.954Z,0
2017-10-17T12:14:19.020Z,3.43
2017-10-17T12:14:59.515Z,0
2017-10-17T12:15:39.997Z,0
2017-10-17T12:16:20.504Z,1.56
2017-10-17T12:17:00.985Z,3.43
2017-10-17T12:17:41.509Z,0
2017-10-17T12:18:22.050Z,3.43
2017-10-17T12:19:02.535Z,0
2017-10-17T12:19:43.114Z,0
2017-10-17T12:20:23.591Z,0.39
2017-10-17T12:21:04.139Z,3.43
2017-10-17T12:21:44.697Z,0
2017-10-17T12:22:25.258Z,0
2017-10-17T12:23:05.824Z,0
2017-10-17T12:23:46.358Z,0
2017-10-17T12:24:26.933Z,3.43
2017-10-17T12:25:07.436Z,0
2017-10-17T12:25:47.938Z,0
2017-10-17T12:26:28.422Z,0.02
2017-10-17T12:27:08.979Z,0
2017-10-17T12:27:49.479Z,0
2017-10-17T12:28:30.016Z,0
2017-10-17T12:29:11.440Z,0
2017-10-17T12:29:51.965Z,0
2017-10-17T12:30:32.478Z,3.12
2017-10-17T12:31:12.991Z,0
2017-10-17T12:31:53.477Z,0
2017-10-17T12:32:33.985Z,0
2017-10-17T12:33:14.474Z,0
2017-10-17T12:33:55.021Z,3.43
2017-10-17T12:34:35.542Z,0
2017-10-17T12:35:16.044Z,0
2017-10-17T12:35:57.132Z,0
2017-10-17T12:36:37.124Z,0
2017-10-17T12:37:17.600Z,0
2017-10-17T12:37:58.093Z,0
2017-10-17T12:38:38.670Z,0.19
2017-10-17T12:39:19.235Z,3.43
2017-10-17T12:39:59.731Z,0
2017-10-17T12:40:40.256Z,0
2017-10-17T12:41:20.833Z,0
2017-10-17T12:42:01.395Z,0
2017-10-17T12:42:41.997Z,0
2017-10-17T12:43:22.530Z,0
2017-10-17T12:44:03.135Z,0
2017-10-17T12:44:43.665Z,0
2017-10-17T12:45:24.154Z,0.39
2017-10-17T12:46:04.683Z,0
2017-10-17T12:46:45.139Z,0
2017-10-17T12:47:26.406Z,0
2017-10-17T12:48:06.910Z,0
2017-10-17T12:48:47.427Z,0
2017-10-17T12:49:27.950Z,0.02
2017-10-17T12:50:08.438Z,3.43
2017-10-17T12:50:48.964Z,0.02
2017-10-17T12:51:29.457Z,3.43
2017-10-17T12:52:09.958Z,3.43
2017-10-17T12:52:51.361Z,0
2017-10-17T12:53:31.855Z,0
2017-10-17T12:54:12.390Z,0
2017-10-17T12:54:52.863Z,0
2017-10-17T12:55:33.360Z,0
2017-10-17T12:56:13.882Z,3.43
2017-10-17T12:56:54.374Z,0
2017-10-17T12:57:34.867Z,0
2017-10-17T12:58:15.369Z,0
2017-10-17T12:58:55.880Z,0
2017-10-17T12:59:36.372Z,0
2017-10-17T13:00:16.937Z,0
2017-10-17T13:00:57.401Z,0.78
2017-10-17T13:01:37.897Z,3.12
2017-10-17T13:02:18.441Z,0
2017-10-17T13:02:59.218Z,0
2017-10-17T13:03:39.743Z,0
2017-10-17T13:04:20.279Z,0
2017-10-17T13:05:00.812Z,0
2017-10-17T13:05:41.303Z,0
2017-10-17T13:06:21.811Z,3.43
2017-10-17T13:07:02.352Z,0
2017-10-17T13:07:42.913Z,0
2017-10-17T13:08:23.455Z,0
2017-10-17T13:09:04.059Z,0
2017-10-17T13:09:44.604Z,6.25
2017-10-17T13:10:25.125Z,3.43
2017-10-17T13:11:05.643Z,0
2017-10-17T13:11:46.221Z,0
2017-10-17T13:12:27.544Z,0
2017-10-17T13:13:08.080Z,3.43
2017-10-17T13:13:48.631Z,0
2017-10-17T13:14:29.138Z,0
2017-10-17T13:15:09.736Z,3.43
2017-10-17T13:15:50.302Z,0
2017-10-17T13:16:30.863Z,100
2017-10-17T13:17:11.418Z,3.12
2017-10-17T13:17:51.923Z,0
2017-10-17T13:18:32.553Z,0
2017-10-17T13:19:13.699Z,0
2017-10-17T13:19:54.218Z,3.43
2017-10-17T13:20:34.893Z,0
2017-10-17T13:21:15.439Z,0
2017-10-17T13:21:56.014Z,0
2017-10-17T13:22:36.535Z,3.43
2017-10-17T13:23:17.083Z,0
2017-10-17T13:23:57.629Z,0
2017-10-17T13:24:38.183Z,3.43
2017-10-17T13:25:18.695Z,0.01
2017-10-17T13:25:59.228Z,0.78
2017-10-17T13:26:39.715Z,3.43
2017-10-17T13:27:20.583Z,0
2017-10-17T13:28:01.194Z,0
2017-10-17T13:28:41.740Z,3.12
2017-10-17T13:29:22.234Z,3.43
2017-10-17T13:30:02.727Z,3.43
2017-10-17T13:30:43.236Z,0
2017-10-17T13:31:23.758Z,0
2017-10-17T13:32:04.241Z,3.43
2017-10-17T13:32:44.729Z,50
2017-10-17T13:33:25.206Z,100
2017-10-17T13:34:05.706Z,0
2017-10-17T13:34:46.220Z,3.43
2017-10-17T13:35:26.762Z,0
2017-10-17T13:36:07.260Z,0
2017-10-17T13:36:47.775Z,3.43
2017-10-17T13:37:28.285Z,3.43
2017-10-17T13:38:08.826Z,0
2017-10-17T13:38:49.383Z,3.43
2017-10-17T13:39:29.883Z,3.43
2017-10-17T13:40:10.433Z,0
2017-10-17T13:40:50.955Z,3.43
2017-10-17T13:41:31.456Z,0
2017-10-17T13:42:11.996Z,3.43
2017-10-17T13:42:52.527Z,3.43
2017-10-17T13:43:33.153Z,3.43
2017-10-17T13:44:13.728Z,3.43
2017-10-17T13:44:54.350Z,0
2017-10-17T13:45:34.916Z,0
2017-10-17T13:46:16.204Z,0.39
2017-10-17T13:46:56.825Z,0
2017-10-17T13:47:37.416Z,3.43
2017-10-17T13:48:18.033Z,0.19
2017-10-17T13:49:01.438Z,0.39
2017-10-17T13:49:41.983Z,3.43
2017-10-17T13:50:22.518Z,0
2017-10-17T13:51:03.111Z,0
2017-10-17T13:51:43.608Z,0
2017-10-17T13:52:24.245Z,3.43
2017-10-17T13:53:04.841Z,0
2017-10-17T13:53:45.390Z,0
2017-10-17T13:54:26.010Z,0.19
2017-10-17T13:55:06.541Z,0
2017-10-17T13:55:47.084Z,0
2017-10-17T13:56:27.664Z,3.43
2017-10-17T13:57:08.219Z,0
2017-10-17T13:57:48.788Z,3.43
2017-10-17T13:58:29.344Z,3.43
2017-10-17T13:59:09.889Z,0
2017-10-17T13:59:50.411Z,0
2017-10-17T14:00:30.936Z,3.43
2017-10-17T14:01:11.443Z,0
2017-10-17T14:01:51.951Z,3.43
2017-10-17T14:02:32.439Z,0
2017-10-17T14:03:12.953Z,0
2017-10-17T14:03:53.507Z,3.43
2017-10-17T14:04:34.243Z,3.43
2017-10-17T14:05:14.880Z,0
2017-10-17T14:05:55.461Z,3.43
2017-10-17T14:06:36.038Z,0
2017-10-17T14:07:16.563Z,100
2017-10-17T14:07:57.086Z,3.43
2017-10-17T14:08:37.592Z,3.43
2017-10-17T14:09:18.112Z,0
2017-10-17T14:09:58.624Z,3.43
2017-10-17T14:10:39.155Z,0
2017-10-17T14:11:19.655Z,0
2017-10-17T14:12:00.200Z,1.56
2017-10-17T14:12:40.724Z,0
2017-10-17T14:13:21.214Z,0
2017-10-17T14:14:01.718Z,12.5
2017-10-17T14:14:42.193Z,0
2017-10-17T14:15:22.686Z,0
2017-10-17T14:16:03.186Z,3.43
2017-10-17T14:16:43.708Z,0
2017-10-17T14:17:24.214Z,0
2017-10-17T14:18:06.611Z,0
2017-10-17T14:18:47.068Z,0
2017-10-17T14:19:27.548Z,0
2017-10-17T14:20:08.070Z,3.43
2017-10-17T14:20:48.613Z,0
2017-10-17T14:21:29.104Z,6.25
2017-10-17T14:22:09.597Z,0
2017-10-17T14:22:50.079Z,3.43
2017-10-17T14:23:30.590Z,0
2017-10-17T14:24:11.077Z,3.43
2017-10-17T14:24:51.559Z,3.43
2017-10-17T14:25:32.013Z,0
2017-10-17T14:26:12.494Z,0
2017-10-17T14:26:52.967Z,50
2017-10-17T14:27:33.442Z,0
2017-10-17T14:28:13.925Z,0.39
2017-10-17T14:28:54.508Z,0
2017-10-17T14:29:34.992Z,0
2017-10-17T14:30:15.468Z,0
2017-10-17T14:30:55.949Z,3.43
2017-10-17T14:31:36.465Z,3.43
2017-10-17T14:32:16.983Z,0
2017-10-17T14:32:57.473Z,0
2017-10-17T14:33:37.996Z,0
2017-10-17T14:34:18.452Z,0
2017-10-17T14:34:59.394Z,3.43
2017-10-17T14:35:40.352Z,3.43
2017-10-17T14:37:32.904Z,0.39
2017-10-17T14:38:13.387Z,3.43
2017-10-17T14:38:53.860Z,0
2017-10-17T14:39:34.345Z,0
2017-10-17T14:40:14.852Z,0
2017-10-17T14:40:55.410Z,0.01
2017-10-17T14:41:35.884Z,0
2017-10-17T14:42:16.362Z,0
2017-10-17T14:42:56.887Z,0
2017-10-17T14:43:37.401Z,0
2017-10-17T14:44:17.895Z,0
2017-10-17T14:44:58.373Z,0
2017-10-17T14:45:38.935Z,0
2017-10-17T14:46:19.466Z,0
2017-10-17T14:46:59.948Z,0
2017-10-17T14:47:40.451Z,0
2017-10-17T14:48:20.932Z,0
2017-10-17T14:49:01.440Z,0
2017-10-17T14:49:41.977Z,0
2017-10-17T14:50:22.462Z,0
2017-10-17T14:51:02.971Z,0
2017-10-17T14:51:43.473Z,0
2017-10-17T14:52:24.160Z,0
2017-10-17T14:53:04.658Z,0
2017-10-17T14:53:45.152Z,0
2017-10-17T14:54:25.642Z,0
2017-10-17T14:55:06.178Z,0
2017-10-17T14:55:46.666Z,0
2017-10-17T14:56:27.183Z,0
2017-10-17T14:57:07.695Z,0
2017-10-17T14:57:48.185Z,0
2017-10-17T14:58:28.673Z,0
2017-10-17T14:59:09.182Z,0
2017-10-17T14:59:49.664Z,0
2017-10-17T15:00:30.149Z,0
2017-10-17T15:01:10.667Z,0
2017-10-17T15:01:51.952Z,0
2017-10-17T15:02:32.444Z,0
2017-10-17T15:03:12.941Z,1.19
2017-10-17T15:03:53.428Z,38.64
2017-10-17T15:04:33.927Z,38.62
2017-10-17T15:05:14.420Z,38.6
2017-10-17T15:05:54.917Z,38.53
2017-10-17T15:06:35.412Z,38.53
2017-10-17T15:07:15.948Z,38.55
2017-10-17T15:07:56.434Z,38.5
2017-10-17T15:08:36.942Z,0.19
2017-10-17T15:09:17.442Z,38.44
2017-10-17T15:09:57.943Z,38.46
2017-10-17T15:10:38.422Z,38.39
2017-10-17T15:11:18.868Z,38.39
2017-10-17T15:11:59.377Z,38.37
2017-10-17T15:12:39.925Z,38.35
2017-10-17T15:13:20.474Z,38.31
2017-10-17T15:14:00.993Z,38.28
2017-10-17T15:14:42.215Z,38.35
2017-10-17T15:15:22.722Z,38.26
2017-10-17T15:16:03.818Z,38.28
2017-10-17T15:16:44.345Z,38.28
2017-10-17T15:17:24.875Z,38.23
2017-10-17T15:18:05.485Z,38.21
2017-10-17T15:18:45.969Z,38.2
2017-10-17T15:19:26.450Z,38.13
2017-10-17T15:20:06.923Z,38.19
2017-10-17T15:20:47.416Z,38.13
2017-10-17T15:21:27.842Z,38.11
2017-10-17T15:22:08.294Z,38.1
2017-10-17T15:22:48.797Z,38.07
2017-10-17T15:23:29.301Z,38.09
2017-10-17T15:24:09.793Z,38.07
2017-10-17T15:24:50.299Z,38.08
2017-10-17T15:25:30.785Z,38.02
2017-10-17T15:26:11.280Z,38.01
2017-10-17T15:26:51.772Z,37.97
2017-10-17T15:27:32.267Z,38.04
2017-10-17T15:28:12.752Z,37.95
2017-10-17T15:28:53.245Z,37.95
2017-10-17T15:29:33.748Z,37.93
2017-10-17T15:30:14.237Z,37.94
2017-10-17T15:30:54.757Z,37.88
2017-10-17T15:31:35.324Z,37.91
2017-10-17T15:32:15.826Z,37.92
2017-10-17T15:32:56.336Z,37.87
2017-10-17T15:33:37.275Z,37.83
2017-10-17T15:34:17.780Z,37.91
2017-10-17T15:34:58.269Z,37.87
2017-10-17T15:35:38.755Z,37.85
2017-10-17T15:36:19.243Z,37.86
2017-10-17T15:36:59.738Z,37.79
2017-10-17T15:37:40.230Z,37.76
2017-10-17T15:38:20.718Z,37.74
2017-10-17T15:39:01.207Z,37.73
2017-10-17T15:39:41.715Z,37.7
2017-10-17T15:40:22.195Z,37.72
2017-10-17T15:41:02.718Z,37.7
2017-10-17T15:41:43.212Z,37.66
2017-10-17T15:42:23.712Z,37.57
2017-10-17T15:43:04.209Z,37.63
2017-10-17T15:43:44.696Z,37.54
2017-10-17T15:44:25.184Z,37.55
2017-10-17T15:45:05.682Z,37.54
2017-10-17T15:45:46.153Z,37.52
2017-10-17T15:46:26.671Z,37.54
2017-10-17T15:47:07.165Z,37.51
2017-10-17T15:47:47.710Z,37.4
2017-10-17T15:48:28.262Z,37.41
2017-10-17T15:49:08.791Z,37.4
2017-10-17T15:49:49.367Z,37.46
2017-10-17T15:50:29.903Z,37.41
2017-10-17T15:51:10.400Z,37.36
2017-10-17T15:51:50.904Z,37.38
2017-10-17T15:52:31.390Z,37.32
2017-10-17T15:53:11.873Z,37.33
2017-10-17T15:53:52.355Z,37.32
2017-10-17T15:54:33.845Z,37.25